Terminal Aerodrome Forecast
Issued by NWS

Current Version | Previous Version | Text Only | Print | Product List | Glossary On
Versions: 1 2 3 4 5 6 7 8 9 10 11 12 13 14 15 16 17 18 19 20 21 22 23 24 25 26
917
FTUS41 KGYX 200304 AAC
TAFHIE
TAF AMD
KHIE 200304Z 2003/2024 29007KT P6SM BKN024 OVC035
      TEMPO 2003/2007 3SM -SHSN BKN035
     FM200900 31005KT P6SM SCT035
     FM201600 32008KT P6SM SKC=

USA.gov is the U.S. government's official web portal to all federal, state and local government web resources and services.